createdAt,value
2023-01-02T00:00:44.480Z,10.49
2023-01-02T00:01:47.246Z,10.45
2023-01-02T00:02:50.048Z,10.47
2023-01-02T00:03:56.115Z,10.45
2023-01-02T00:04:58.812Z,10.41
2023-01-02T00:06:05.176Z,10.46
2023-01-02T00:07:07.658Z,10.47
2023-01-02T00:08:10.302Z,10.42
2023-01-02T00:09:12.736Z,10.45
2023-01-02T00:10:15.347Z,10.48
2023-01-02T00:11:18.024Z,10.46
2023-01-02T00:12:20.540Z,10.44
2023-01-02T00:13:23.299Z,10.53
2023-01-02T00:14:25.823Z,10.51
2023-01-02T00:15:28.341Z,10.51
2023-01-02T00:16:31.012Z,10.55
2023-01-02T00:17:33.744Z,10.55
2023-01-02T00:18:36.520Z,10.57
2023-01-02T00:19:39.027Z,10.60
2023-01-02T00:20:41.665Z,10.58
2023-01-02T00:21:44.434Z,10.58
2023-01-02T00:22:48.180Z,10.59
2023-01-02T00:23:50.671Z,10.60
2023-01-02T00:24:53.307Z,10.57
2023-01-02T00:25:57.728Z,10.57
2023-01-02T00:27:00.628Z,10.58
2023-01-02T00:28:03.407Z,10.60
2023-01-02T00:29:05.907Z,10.60
2023-01-02T00:30:09.032Z,10.59
2023-01-02T00:31:14.534Z,10.61
2023-01-02T00:32:17.430Z,10.59
2023-01-02T00:33:20.321Z,10.64
2023-01-02T00:34:22.963Z,10.61
2023-01-02T00:35:25.713Z,10.58
2023-01-02T00:36:28.245Z,10.59
2023-01-02T00:37:30.762Z,10.61
2023-01-02T00:38:37.486Z,10.68
2023-01-02T00:39:40.850Z,10.66
2023-01-02T00:40:43.356Z,10.67
2023-01-02T00:41:45.875Z,10.66
2023-01-02T00:42:48.279Z,10.70
2023-01-02T00:43:50.795Z,10.66
2023-01-02T00:44:53.324Z,10.65
2023-01-02T00:45:56.082Z,10.70
2023-01-02T00:46:58.669Z,10.70
2023-01-02T00:48:01.962Z,10.67
2023-01-02T00:49:04.630Z,10.75
2023-01-02T00:50:07.636Z,10.75
2023-01-02T00:51:10.260Z,10.73
2023-01-02T00:52:12.776Z,10.74
2023-01-02T00:53:15.894Z,10.78
2023-01-02T00:54:18.414Z,10.73
2023-01-02T00:55:20.939Z,10.68
2023-01-02T00:56:23.576Z,10.70
2023-01-02T00:57:26.099Z,10.67
2023-01-02T00:58:28.619Z,10.72
2023-01-02T00:59:31.158Z,10.73
2023-01-02T01:00:33.729Z,10.77
2023-01-02T01:01:36.601Z,10.77
2023-01-02T01:02:39.407Z,10.81
2023-01-02T01:03:43.643Z,10.82
2023-01-02T01:04:46.392Z,10.80
2023-01-02T01:05:49.033Z,10.79
2023-01-02T01:06:51.911Z,10.76
2023-01-02T01:07:57.944Z,10.77
2023-01-02T01:09:00.914Z,10.75
2023-01-02T01:10:03.801Z,10.78
2023-01-02T01:11:08.840Z,10.77
2023-01-02T01:12:11.961Z,10.75
2023-01-02T01:13:14.965Z,10.75
2023-01-02T01:14:17.981Z,10.73
2023-01-02T01:15:21.093Z,10.76
2023-01-02T01:16:24.279Z,10.70
2023-01-02T01:17:27.333Z,10.71
2023-01-02T01:18:30.450Z,10.79
2023-01-02T01:19:35.532Z,10.81
2023-01-02T01:20:39.584Z,10.81
2023-01-02T01:21:42.695Z,10.78
2023-01-02T01:22:46.061Z,10.81
2023-01-02T01:23:53.988Z,10.86
2023-01-02T01:24:57.102Z,10.85
2023-01-02T01:26:00.343Z,10.84
2023-01-02T01:27:03.465Z,10.85
2023-01-02T01:28:06.593Z,10.83
2023-01-02T01:29:09.708Z,10.83
2023-01-02T01:30:13.311Z,10.85
2023-01-02T01:31:17.060Z,10.81
2023-01-02T01:32:20.273Z,10.79
2023-01-02T01:33:23.396Z,10.76
2023-01-02T01:34:26.518Z,10.80
2023-01-02T01:35:29.519Z,10.80
2023-01-02T01:36:32.760Z,10.78
2023-01-02T01:37:38.286Z,10.75
2023-01-02T01:40:09.012Z,10.83
2023-01-02T01:41:17.768Z,10.89
2023-01-02T01:42:21.129Z,10.86
2023-01-02T01:43:53.893Z,10.92
2023-01-02T01:44:57.256Z,10.85
2023-01-02T01:46:01.258Z,10.85
2023-01-02T01:47:04.346Z,10.87
2023-01-02T01:48:12.620Z,10.91
2023-01-02T01:49:29.186Z,10.93
2023-01-02T01:50:34.942Z,10.93
2023-01-02T01:51:45.029Z,10.93
2023-01-02T01:53:14.909Z,10.98
2023-01-02T01:54:32.789Z,10.99
2023-01-02T01:55:38.916Z,11.02
2023-01-02T01:56:45.445Z,11.05
2023-01-02T01:58:04.118Z,11.05
2023-01-02T01:59:09.453Z,11.06
2023-01-02T02:00:12.929Z,11.03
2023-01-02T02:01:17.988Z,11.11
2023-01-02T02:02:22.831Z,11.08
2023-01-02T02:03:29.130Z,11.14
2023-01-02T02:04:31.770Z,11.11
2023-01-02T02:05:35.011Z,11.13
2023-01-02T02:06:38.492Z,11.12
2023-01-02T02:07:49.135Z,11.16
2023-01-02T02:09:15.937Z,11.21
2023-01-02T02:10:18.659Z,11.21
2023-01-02T02:11:21.725Z,11.20
2023-01-02T02:12:28.028Z,11.21
2023-01-02T02:13:34.537Z,11.29
2023-01-02T02:14:37.262Z,11.30
2023-01-02T02:16:10.450Z,11.35
2023-01-02T02:17:36.345Z,11.34
2023-01-02T02:18:53.473Z,11.32
2023-01-02T02:20:20.508Z,11.30
2023-01-02T02:21:38.261Z,11.35
2023-01-02T02:22:49.420Z,11.36
2023-01-02T02:24:20.479Z,11.43
2023-01-02T02:25:22.907Z,11.44
2023-01-02T02:27:00.345Z,11.41
2023-01-02T02:28:17.747Z,11.42
2023-01-02T02:29:46.667Z,11.40
2023-01-02T02:30:57.710Z,11.43
2023-01-02T02:32:21.960Z,11.39
2023-01-02T02:33:40.067Z,11.37
2023-01-02T02:34:57.830Z,11.39
2023-01-02T02:36:37.677Z,11.43
2023-01-02T02:37:46.205Z,11.36
2023-01-02T02:38:58.232Z,11.40
2023-01-02T02:40:18.951Z,11.42
2023-01-02T02:41:34.567Z,11.45
2023-01-02T02:42:45.834Z,11.38
2023-01-02T02:44:25.678Z,11.44
2023-01-02T02:45:46.117Z,11.47
2023-01-02T02:47:00.015Z,11.47
2023-01-02T02:48:16.559Z,11.49
2023-01-02T02:50:05.645Z,11.50
2023-01-02T02:51:15.137Z,11.47
2023-01-02T02:52:20.663Z,11.47
2023-01-02T02:53:26.405Z,11.45
2023-01-02T02:54:44.290Z,11.52
2023-01-02T02:55:57.613Z,11.53
2023-01-02T02:57:02.177Z,11.51
2023-01-02T02:58:06.374Z,11.53
2023-01-02T02:59:09.616Z,11.53
2023-01-02T03:00:16.458Z,11.57
2023-01-02T03:01:19.461Z,11.58
2023-01-02T03:02:22.309Z,11.55
2023-01-02T03:03:25.141Z,11.59
2023-01-02T03:04:27.868Z,11.61
2023-01-02T03:05:36.182Z,11.65
2023-01-02T03:07:00.183Z,11.66
2023-01-02T03:08:13.233Z,11.64
2023-01-02T03:09:32.563Z,11.68
2023-01-02T03:10:44.795Z,11.67
2023-01-02T03:12:02.451Z,11.65
2023-01-02T03:13:18.883Z,11.68
2023-01-02T03:14:30.762Z,11.73
2023-01-02T03:15:58.613Z,11.76
2023-01-02T03:17:04.666Z,11.77
2023-01-02T03:18:19.619Z,11.80
2023-01-02T03:19:37.008Z,11.79
2023-01-02T03:20:45.055Z,11.81
2023-01-02T03:22:01.373Z,11.88
2023-01-02T03:23:08.219Z,11.85
2023-01-02T03:24:15.546Z,11.84
2023-01-02T03:25:21.663Z,11.85
2023-01-02T03:26:29.225Z,11.86
2023-01-02T03:27:38.101Z,11.90
2023-01-02T03:28:45.552Z,11.90
2023-01-02T03:29:54.790Z,11.92
2023-01-02T03:31:03.226Z,11.97
2023-01-02T03:32:13.758Z,11.98
2023-01-02T03:33:20.596Z,12.00
2023-01-02T03:34:31.161Z,12.01
2023-01-02T03:35:41.356Z,12.04
2023-01-02T03:36:48.681Z,12.05
2023-01-02T03:37:57.557Z,12.06
2023-01-02T03:39:09.684Z,12.00
2023-01-02T03:40:20.244Z,12.01
2023-01-02T03:41:31.528Z,12.05
2023-01-02T03:42:45.460Z,12.07
2023-01-02T03:43:56.597Z,12.09
2023-01-02T03:45:22.654Z,12.10
2023-01-02T03:46:41.865Z,12.10
2023-01-02T03:48:11.137Z,12.10
2023-01-02T03:49:23.981Z,12.11
2023-01-02T03:50:36.100Z,12.16
2023-01-02T03:51:38.982Z,12.11
2023-01-02T03:52:41.988Z,12.10
2023-01-02T03:53:46.307Z,12.15
2023-01-02T03:54:49.553Z,12.16
2023-01-02T03:56:03.952Z,12.20
2023-01-02T03:57:09.540Z,12.13
2023-01-02T03:58:40.850Z,12.19
2023-01-02T04:00:13.130Z,12.21
2023-01-02T04:01:35.108Z,12.14
2023-01-02T04:02:55.507Z,12.20
2023-01-02T04:04:12.650Z,12.18
2023-01-02T04:05:24.054Z,12.19
2023-01-02T04:06:34.255Z,12.24
2023-01-02T04:08:04.506Z,12.21
2023-01-02T04:09:14.937Z,12.18
2023-01-02T04:10:18.295Z,12.15
2023-01-02T04:11:23.700Z,12.19
2023-01-02T04:12:29.939Z,12.21
2023-01-02T04:13:42.534Z,12.20
2023-01-02T04:14:48.979Z,12.23
2023-01-02T04:15:52.976Z,12.20
2023-01-02T04:16:58.402Z,12.20
2023-01-02T04:18:07.746Z,12.22
2023-01-02T04:19:15.420Z,12.22
2023-01-02T04:20:23.464Z,12.23
2023-01-02T04:21:31.151Z,12.20
2023-01-02T04:22:47.556Z,12.23
2023-01-02T04:24:07.490Z,12.23
2023-01-02T04:25:16.148Z,12.17
2023-01-02T04:26:34.271Z,12.21
2023-01-02T04:27:45.070Z,12.18
2023-01-02T04:28:48.935Z,12.17
2023-01-02T04:29:51.909Z,12.14
2023-01-02T04:31:27.857Z,12.19
2023-01-02T04:32:40.990Z,12.17
2023-01-02T04:33:51.791Z,12.18
2023-01-02T04:34:55.158Z,12.23
2023-01-02T04:35:57.672Z,12.14
2023-01-02T04:37:00.193Z,12.14
2023-01-02T04:38:10.880Z,12.20
2023-01-02T04:39:13.517Z,12.16
2023-01-02T04:40:27.569Z,12.19
2023-01-02T04:41:30.560Z,12.20
2023-01-02T04:42:33.072Z,12.15
2023-01-02T04:43:35.718Z,12.16
2023-01-02T04:44:38.119Z,12.16
2023-01-02T04:45:40.635Z,12.15
2023-01-02T04:46:43.198Z,12.18
2023-01-02T04:47:48.076Z,12.22
2023-01-02T04:48:50.600Z,12.19
2023-01-02T04:49:53.117Z,12.17
2023-01-02T04:50:56.128Z,12.16
2023-01-02T04:51:58.647Z,12.18
2023-01-02T04:53:01.286Z,12.20
2023-01-02T04:54:04.049Z,12.19
2023-01-02T04:55:08.536Z,12.18
2023-01-02T04:56:10.896Z,12.20
2023-01-02T04:57:13.418Z,12.19
2023-01-02T04:58:15.936Z,12.15
2023-01-02T04:59:18.467Z,12.20
2023-01-02T05:00:21.109Z,12.20
2023-01-02T05:01:23.814Z,12.20
2023-01-02T05:02:26.630Z,12.22
2023-01-02T05:03:29.173Z,12.25
2023-01-02T05:04:31.784Z,12.26
2023-01-02T05:05:34.317Z,12.25
2023-01-02T05:06:37.193Z,12.22
2023-01-02T05:07:39.832Z,12.23
2023-01-02T05:08:42.959Z,12.27
2023-01-02T05:09:45.712Z,12.25
2023-01-02T05:10:48.358Z,12.27
2023-01-02T05:11:51.125Z,12.28
2023-01-02T05:12:54.015Z,12.25
2023-01-02T05:14:01.188Z,12.30
2023-01-02T05:15:09.001Z,12.30
2023-01-02T05:16:12.890Z,12.32
2023-01-02T05:17:15.964Z,12.27
2023-01-02T05:18:18.971Z,12.33
2023-01-02T05:19:22.086Z,12.32
2023-01-02T05:20:25.216Z,12.34
2023-01-02T05:21:46.691Z,12.33
2023-01-02T05:23:09.017Z,12.32
2023-01-02T05:24:12.377Z,12.34
2023-01-02T05:25:15.497Z,12.32
2023-01-02T05:26:18.980Z,12.33
2023-01-02T05:27:22.102Z,12.33
2023-01-02T05:28:25.956Z,12.34
2023-01-02T05:29:30.040Z,12.34
2023-01-02T05:30:33.147Z,12.32
2023-01-02T05:31:36.292Z,12.30
2023-01-02T05:32:40.349Z,12.35
2023-01-02T05:33:43.481Z,12.33
2023-01-02T05:34:46.598Z,12.34
2023-01-02T05:35:49.734Z,12.34
2023-01-02T05:36:52.869Z,12.34
2023-01-02T05:37:56.077Z,12.37
2023-01-02T05:38:59.560Z,12.37
2023-01-02T05:40:02.685Z,12.37
2023-01-02T05:41:07.972Z,12.43
2023-01-02T05:42:11.460Z,12.39
2023-01-02T05:43:14.809Z,12.40
2023-01-02T05:44:17.932Z,12.42
2023-01-02T05:45:21.294Z,12.41
2023-01-02T05:46:24.594Z,12.40
2023-01-02T05:47:27.775Z,12.44
2023-01-02T05:48:31.139Z,12.41
2023-01-02T05:49:34.502Z,12.41
2023-01-02T05:50:37.506Z,12.43
2023-01-02T05:51:40.513Z,12.40
2023-01-02T05:52:45.814Z,12.40
2023-01-02T05:53:49.144Z,12.43
2023-01-02T05:54:51.786Z,12.45
2023-01-02T05:55:54.429Z,12.45
2023-01-02T05:56:57.447Z,12.45
2023-01-02T05:58:02.560Z,12.43
2023-01-02T05:59:08.768Z,12.50
2023-01-02T06:00:12.074Z,12.46
2023-01-02T06:01:20.166Z,12.50
2023-01-02T06:02:23.858Z,12.44
2023-01-02T06:03:26.600Z,12.46
2023-01-02T06:04:29.174Z,12.43
2023-01-02T06:05:31.710Z,12.45
2023-01-02T06:06:40.176Z,12.49
2023-01-02T06:07:42.738Z,12.48
2023-01-02T06:08:45.379Z,12.43
2023-01-02T06:09:48.214Z,12.46
2023-01-02T06:10:52.065Z,12.49
2023-01-02T06:11:54.612Z,12.49
2023-01-02T06:12:57.455Z,12.48
2023-01-02T06:14:00.260Z,12.46
2023-01-02T06:15:03.019Z,12.47
2023-01-02T06:16:07.739Z,12.52
2023-01-02T06:17:10.422Z,12.48
2023-01-02T06:18:12.986Z,12.45
2023-01-02T06:19:15.590Z,12.45
2023-01-02T06:20:18.607Z,12.46
2023-01-02T06:21:23.641Z,12.47
2023-01-02T06:22:26.395Z,12.46
2023-01-02T06:23:29.190Z,12.52
2023-01-02T06:24:31.835Z,12.51
2023-01-02T06:25:34.876Z,12.52
2023-01-02T06:26:37.492Z,12.51
2023-01-02T06:27:40.082Z,12.48
2023-01-02T06:28:43.226Z,12.48
2023-01-02T06:29:45.868Z,12.46
2023-01-02T06:30:48.396Z,12.46
2023-01-02T06:31:51.739Z,12.44
2023-01-02T06:32:56.671Z,12.48
2023-01-02T06:34:00.810Z,12.48
2023-01-02T06:35:03.511Z,12.44
2023-01-02T06:36:11.676Z,12.49
2023-01-02T06:37:14.189Z,12.41
2023-01-02T06:38:16.709Z,12.44
2023-01-02T06:39:19.239Z,12.43
2023-01-02T06:40:21.757Z,12.43
2023-01-02T06:41:24.299Z,12.44
2023-01-02T06:42:26.803Z,12.42
2023-01-02T06:43:31.000Z,12.44
2023-01-02T06:44:33.519Z,12.46
2023-01-02T06:45:36.060Z,12.43
2023-01-02T06:46:38.556Z,12.44
2023-01-02T06:47:41.079Z,12.44
2023-01-02T06:48:43.735Z,12.44
2023-01-02T06:49:46.236Z,12.44
2023-01-02T06:50:48.645Z,12.48
2023-01-02T06:51:51.165Z,12.49
2023-01-02T06:52:53.682Z,12.46
2023-01-02T06:53:57.049Z,12.42
2023-01-02T06:54:59.449Z,12.49
2023-01-02T06:56:02.091Z,12.44
2023-01-02T06:57:04.732Z,12.48
2023-01-02T06:58:12.270Z,12.46
2023-01-02T06:59:15.897Z,12.48
2023-01-02T07:00:18.653Z,12.44
2023-01-02T07:01:22.961Z,12.46
2023-01-02T07:02:25.723Z,12.42
2023-01-02T07:03:28.263Z,12.40
2023-01-02T07:04:30.898Z,12.41
2023-01-02T07:05:33.426Z,12.39
2023-01-02T07:06:35.943Z,12.41
2023-01-02T07:07:38.587Z,12.42
2023-01-02T07:08:42.066Z,12.43
2023-01-02T07:09:44.715Z,12.43
2023-01-02T07:10:52.784Z,12.44
2023-01-02T07:11:55.993Z,12.44
2023-01-02T07:12:58.644Z,12.42
2023-01-02T07:14:01.640Z,12.39
2023-01-02T07:15:06.457Z,12.42
2023-01-02T07:16:13.213Z,12.46
2023-01-02T07:17:16.040Z,12.42
2023-01-02T07:18:19.047Z,12.42
2023-01-02T07:19:22.162Z,12.49
2023-01-02T07:20:25.284Z,12.43
2023-01-02T07:21:28.412Z,12.44
2023-01-02T07:22:31.530Z,12.40
2023-01-02T07:23:35.383Z,12.42
2023-01-02T07:24:39.332Z,12.43
2023-01-02T07:25:44.579Z,12.41
2023-01-02T07:26:47.987Z,12.44
2023-01-02T07:27:51.218Z,12.43
2023-01-02T07:28:54.341Z,12.43
2023-01-02T07:29:57.465Z,12.41
2023-01-02T07:31:02.751Z,12.42
2023-01-02T07:32:05.918Z,12.42
2023-01-02T07:33:09.232Z,12.40
2023-01-02T07:34:13.558Z,12.44
2023-01-02T07:35:16.673Z,12.41
2023-01-02T07:36:22.551Z,12.40
2023-01-02T07:37:26.153Z,12.41
2023-01-02T07:38:29.527Z,12.41
2023-01-02T07:39:32.638Z,12.40
2023-01-02T07:40:35.767Z,12.42
2023-01-02T07:41:39.133Z,12.42
2023-01-02T07:42:49.681Z,12.48
2023-01-02T07:43:55.943Z,12.43
2023-01-02T07:44:59.296Z,12.38
2023-01-02T07:46:04.481Z,12.41
2023-01-02T07:47:07.930Z,12.39
2023-01-02T07:48:11.419Z,12.40
2023-01-02T07:49:14.902Z,12.40
2023-01-02T07:50:18.139Z,12.36
2023-01-02T07:51:26.727Z,12.38
2023-01-02T07:52:31.577Z,12.39
2023-01-02T07:53:35.074Z,12.43
2023-01-02T07:54:38.556Z,12.42
2023-01-02T07:55:41.311Z,12.40
2023-01-02T07:56:43.946Z,12.37
2023-01-02T07:57:48.517Z,12.37
2023-01-02T07:58:51.390Z,12.38
2023-01-02T07:59:54.037Z,12.40
2023-01-02T08:01:03.238Z,12.39
2023-01-02T08:02:11.686Z,12.44
2023-01-02T08:03:14.732Z,12.41
2023-01-02T08:04:17.357Z,12.40
2023-01-02T08:05:19.961Z,12.40
2023-01-02T08:06:22.609Z,12.39
2023-01-02T08:07:25.171Z,12.39
2023-01-02T08:08:27.763Z,12.38
2023-01-02T08:09:30.286Z,12.39
2023-01-02T08:10:32.976Z,12.39
2023-01-02T08:11:35.730Z,12.36
2023-01-02T08:12:38.693Z,12.39
2023-01-02T08:13:42.103Z,12.40
2023-01-02T08:14:44.575Z,12.34
2023-01-02T08:15:47.235Z,12.35
2023-01-02T08:16:49.807Z,12.36
2023-01-02T08:17:52.413Z,12.40
2023-01-02T08:18:56.006Z,12.38
2023-01-02T08:20:04.898Z,12.42
2023-01-02T08:21:10.639Z,12.40
2023-01-02T08:22:13.181Z,12.41
2023-01-02T08:23:15.939Z,12.42
2023-01-02T08:24:18.462Z,12.42
2023-01-02T08:25:20.953Z,12.40
2023-01-02T08:26:24.217Z,12.46
2023-01-02T08:27:26.742Z,12.46
2023-01-02T08:28:30.100Z,12.45
2023-01-02T08:29:33.101Z,12.43
2023-01-02T08:30:35.671Z,12.43
2023-01-02T08:31:43.493Z,12.46
2023-01-02T08:32:46.427Z,12.45
2023-01-02T08:33:48.946Z,12.43
2023-01-02T08:34:51.466Z,12.44
2023-01-02T08:35:56.670Z,12.43
2023-01-02T08:36:59.287Z,12.44
2023-01-02T08:38:01.789Z,12.42
2023-01-02T08:39:04.310Z,12.44
2023-01-02T08:40:07.193Z,12.44
2023-01-02T08:41:10.107Z,12.43
2023-01-02T08:42:13.192Z,12.40
2023-01-02T08:43:16.383Z,12.41
2023-01-02T08:44:18.956Z,12.40
2023-01-02T08:45:21.473Z,12.37
2023-01-02T08:46:24.697Z,12.38
2023-01-02T08:47:27.957Z,12.35
2023-01-02T08:48:30.474Z,12.36
2023-01-02T08:49:33.000Z,12.36
2023-01-02T08:50:35.585Z,12.34
2023-01-02T08:51:38.038Z,12.34
2023-01-02T08:52:40.694Z,12.34
2023-01-02T08:53:43.203Z,12.33
2023-01-02T08:54:45.722Z,12.31
2023-01-02T08:55:48.129Z,12.32
2023-01-02T08:56:50.765Z,12.34
2023-01-02T08:57:53.404Z,12.26
2023-01-02T08:58:59.051Z,12.30
2023-01-02T09:00:01.572Z,12.26
2023-01-02T09:01:04.242Z,12.28
2023-01-02T09:02:07.013Z,12.28
2023-01-02T09:03:09.684Z,12.28
2023-01-02T09:04:13.296Z,12.25
2023-01-02T09:05:16.224Z,12.26
2023-01-02T09:06:22.024Z,12.28
2023-01-02T09:07:25.697Z,12.28
2023-01-02T09:08:28.822Z,12.29
2023-01-02T09:09:31.825Z,12.24
2023-01-02T09:10:34.347Z,12.22
2023-01-02T09:11:39.167Z,12.23
2023-01-02T09:12:41.909Z,12.23
2023-01-02T09:13:45.277Z,12.24
2023-01-02T09:14:48.035Z,12.22
2023-01-02T09:15:50.864Z,12.22
2023-01-02T09:16:53.799Z,12.21
2023-01-02T09:17:56.801Z,12.21
2023-01-02T09:19:01.839Z,12.23
2023-01-02T09:20:05.124Z,12.24
2023-01-02T09:21:08.082Z,12.18
2023-01-02T09:22:11.807Z,12.18
2023-01-02T09:23:14.930Z,12.16
2023-01-02T09:24:18.287Z,12.17
2023-01-02T09:25:24.363Z,12.18
2023-01-02T09:26:27.909Z,12.17
2023-01-02T09:27:31.019Z,12.12
2023-01-02T09:28:36.295Z,12.16
2023-01-02T09:29:39.415Z,12.10
2023-01-02T09:30:42.709Z,12.07
2023-01-02T09:31:46.075Z,12.04
2023-01-02T09:32:51.060Z,12.06
2023-01-02T09:33:55.503Z,12.04
2023-01-02T09:34:58.750Z,12.01
2023-01-02T09:36:03.319Z,11.90
2023-01-02T09:37:06.447Z,11.84
2023-01-02T09:38:09.552Z,11.74
2023-01-02T09:39:13.151Z,11.73
2023-01-02T09:40:16.538Z,11.73
2023-01-02T09:41:22.515Z,11.70
2023-01-02T09:42:25.638Z,11.67
2023-01-02T09:43:33.916Z,11.66
2023-01-02T09:44:46.522Z,11.67
2023-01-02T09:45:51.563Z,11.57
2023-01-02T09:47:00.836Z,11.59
2023-01-02T09:48:04.529Z,11.42
2023-01-02T09:49:14.012Z,11.08
2023-01-02T09:50:27.451Z,10.96
2023-01-02T09:51:33.931Z,10.85
2023-01-02T09:52:47.612Z,10.80
2023-01-02T09:53:50.975Z,10.70
2023-01-02T09:54:54.337Z,10.57
2023-01-02T09:56:11.381Z,10.56
2023-01-02T09:57:35.144Z,10.51
2023-01-02T09:58:42.703Z,10.47
2023-01-02T09:59:57.106Z,10.45
2023-01-02T10:01:00.108Z,10.40
2023-01-02T10:02:17.512Z,10.46
2023-01-02T10:03:41.000Z,10.48
2023-01-02T10:04:50.698Z,10.41
2023-01-02T10:06:15.957Z,10.39
2023-01-02T10:07:30.846Z,10.43
2023-01-02T10:08:49.364Z,10.41
2023-01-02T10:10:10.618Z,10.26
2023-01-02T10:11:21.895Z,10.22
2023-01-02T10:12:38.047Z,10.13
2023-01-02T10:14:21.105Z,9.98
2023-01-02T10:15:27.391Z,9.93
2023-01-02T10:16:36.891Z,9.88
2023-01-02T10:17:46.341Z,9.80
2023-01-02T10:18:52.975Z,9.82
2023-01-02T10:20:01.988Z,9.77
2023-01-02T10:21:19.100Z,9.73
2023-01-02T10:22:30.774Z,9.80
2023-01-02T10:23:45.176Z,9.75
2023-01-02T10:24:52.259Z,9.69
2023-01-02T10:26:00.755Z,9.63
2023-01-02T10:27:06.659Z,9.66
2023-01-02T10:28:42.659Z,9.61
2023-01-02T10:30:16.024Z,9.58
2023-01-02T10:31:25.293Z,9.53
2023-01-02T10:32:30.064Z,9.47
2023-01-02T10:33:48.313Z,9.47
2023-01-02T10:34:59.950Z,9.49
2023-01-02T10:36:03.075Z,9.43
2023-01-02T10:37:13.876Z,9.50
2023-01-02T10:38:18.903Z,9.48
2023-01-02T10:39:27.557Z,9.40
2023-01-02T10:40:32.006Z,9.40
2023-01-02T10:41:35.956Z,9.36
2023-01-02T10:42:38.713Z,9.32
2023-01-02T10:43:41.954Z,9.31
2023-01-02T10:44:46.028Z,9.29
2023-01-02T10:45:48.673Z,9.29
2023-01-02T10:46:51.352Z,9.27
2023-01-02T10:47:53.846Z,9.29
2023-01-02T10:48:57.554Z,9.37
2023-01-02T10:50:01.390Z,9.40
2023-01-02T10:51:11.749Z,9.41
2023-01-02T10:52:26.723Z,9.40
2023-01-02T10:53:37.598Z,9.43
2023-01-02T10:55:00.180Z,9.38
2023-01-02T10:56:15.558Z,9.38
2023-01-02T10:57:24.451Z,9.37
2023-01-02T10:58:29.243Z,9.40
2023-01-02T10:59:31.764Z,9.38
2023-01-02T11:00:36.565Z,9.34
2023-01-02T11:01:52.139Z,9.38
2023-01-02T11:02:58.919Z,9.36
2023-01-02T11:04:01.409Z,9.39
2023-01-02T11:05:06.223Z,9.42
2023-01-02T11:06:31.036Z,9.43
2023-01-02T11:07:40.072Z,9.43
2023-01-02T11:08:42.708Z,9.41
2023-01-02T11:09:56.741Z,9.48
2023-01-02T11:11:01.803Z,9.36
2023-01-02T11:12:14.540Z,9.49
2023-01-02T11:13:20.748Z,9.36
2023-01-02T11:14:33.355Z,9.33
2023-01-02T11:15:56.567Z,9.36
2023-01-02T11:17:24.112Z,9.32
2023-01-02T11:18:33.378Z,9.35
2023-01-02T11:19:55.808Z,9.24
2023-01-02T11:21:04.397Z,9.19
2023-01-02T11:22:08.893Z,9.17
2023-01-02T11:23:15.250Z,9.20
2023-01-02T11:24:26.043Z,9.18
2023-01-02T11:25:36.859Z,9.20
2023-01-02T11:26:40.829Z,9.25
2023-01-02T11:27:45.379Z,9.27
2023-01-02T11:28:51.250Z,9.24
2023-01-02T11:29:54.374Z,9.31
2023-01-02T11:31:10.508Z,9.39
2023-01-02T11:32:30.385Z,9.41
2023-01-02T11:33:35.307Z,9.36
2023-01-02T11:34:41.061Z,9.30
2023-01-02T11:35:58.109Z,9.38
2023-01-02T11:37:05.321Z,9.40
2023-01-02T11:38:29.588Z,9.43
2023-01-02T11:39:34.951Z,9.47
2023-01-02T11:40:38.071Z,9.46
2023-01-02T11:42:18.165Z,9.45
2023-01-02T11:43:43.122Z,9.40
2023-01-02T11:45:00.756Z,9.38
2023-01-02T11:46:10.015Z,9.48
2023-01-02T11:47:14.924Z,9.46
2023-01-02T11:48:24.530Z,9.62
2023-01-02T11:49:37.257Z,9.70
2023-01-02T11:50:40.857Z,9.71
2023-01-02T11:51:44.331Z,9.74
2023-01-02T11:53:04.388Z,9.80
2023-01-02T11:54:22.154Z,9.80
2023-01-02T11:55:49.648Z,9.80
2023-01-02T11:56:53.354Z,9.75
2023-01-02T11:58:18.916Z,9.78
2023-01-02T11:59:27.804Z,9.89
2023-01-02T12:00:36.208Z,9.89
2023-01-02T12:01:48.198Z,9.90
2023-01-02T12:02:54.808Z,9.89
2023-01-02T12:03:57.936Z,9.87
2023-01-02T12:05:00.685Z,9.81
2023-01-02T12:06:05.853Z,9.91
2023-01-02T12:07:38.254Z,9.99
2023-01-02T12:08:52.898Z,10.14
2023-01-02T12:10:13.915Z,10.13
2023-01-02T12:11:31.701Z,10.16
2023-01-02T12:12:48.854Z,10.17
2023-01-02T12:14:15.248Z,10.16
2023-01-02T12:15:56.393Z,10.15
2023-01-02T12:17:08.422Z,10.14
2023-01-02T12:18:20.016Z,10.14
2023-01-02T12:19:35.019Z,10.04
2023-01-02T12:21:07.453Z,10.02
2023-01-02T12:22:25.465Z,9.89
2023-01-02T12:23:57.136Z,9.87
2023-01-02T12:25:30.019Z,9.86
2023-01-02T12:26:59.516Z,9.77
2023-01-02T12:28:06.479Z,9.74
2023-01-02T12:29:47.964Z,9.76
2023-01-02T12:30:59.659Z,9.64
2023-01-02T12:32:17.107Z,9.55
2023-01-02T12:33:46.580Z,9.57
2023-01-02T12:35:27.003Z,9.49
2023-01-02T12:36:42.984Z,9.46
2023-01-02T12:37:55.115Z,9.44
2023-01-02T12:39:14.424Z,9.42
2023-01-02T12:40:25.963Z,9.43
2023-01-02T12:42:14.909Z,9.39
2023-01-02T12:43:35.203Z,9.41
2023-01-02T12:44:37.709Z,9.29
2023-01-02T12:46:09.401Z,9.39
2023-01-02T12:47:24.276Z,9.35
2023-01-02T12:48:53.073Z,9.40
2023-01-02T12:50:29.793Z,9.42
2023-01-02T12:51:36.514Z,9.42
2023-01-02T12:52:53.682Z,9.40
2023-01-02T12:54:20.481Z,9.45
2023-01-02T12:55:38.683Z,9.40
2023-01-02T12:57:13.685Z,9.40
2023-01-02T12:58:31.479Z,9.40
2023-01-02T13:00:03.056Z,9.41
2023-01-02T13:02:07.538Z,9.46
2023-01-02T13:03:32.359Z,9.42
2023-01-02T13:04:40.262Z,9.42
2023-01-02T13:05:49.255Z,9.42
2023-01-02T13:06:57.414Z,9.46
2023-01-02T13:08:12.773Z,9.46
2023-01-02T13:09:22.809Z,9.41
2023-01-02T13:10:29.344Z,9.48
2023-01-02T13:11:43.379Z,9.52
2023-01-02T13:12:47.347Z,9.55
2023-01-02T13:13:50.108Z,9.44
2023-01-02T13:14:54.666Z,9.43
2023-01-02T13:16:03.534Z,9.55
2023-01-02T13:17:16.525Z,9.64
2023-01-02T13:18:25.275Z,9.61
2023-01-02T13:19:50.353Z,9.71
2023-01-02T13:21:05.616Z,9.58
2023-01-02T13:22:18.439Z,9.62
2023-01-02T13:23:35.532Z,9.64
2023-01-02T13:24:39.208Z,9.53
2023-01-02T13:25:52.289Z,9.55
2023-01-02T13:26:58.407Z,9.53
2023-01-02T13:28:06.209Z,9.59
2023-01-02T13:29:09.329Z,9.59
2023-01-02T13:30:57.566Z,9.64
2023-01-02T13:32:10.280Z,9.66
2023-01-02T13:33:34.659Z,9.79
2023-01-02T13:34:47.260Z,9.88
2023-01-02T13:35:50.859Z,9.86
2023-01-02T13:37:10.430Z,9.90
2023-01-02T13:38:16.307Z,9.88
2023-01-02T13:39:23.286Z,9.91
2023-01-02T13:40:33.706Z,9.92
2023-01-02T13:42:00.863Z,9.85
2023-01-02T13:43:09.349Z,9.85
2023-01-02T13:44:12.477Z,9.77
2023-01-02T13:45:44.465Z,9.73
2023-01-02T13:47:03.888Z,9.59
2023-01-02T13:48:38.401Z,9.78
2023-01-02T13:49:42.487Z,9.66
2023-01-02T13:50:46.564Z,9.63
2023-01-02T13:51:49.930Z,9.60
2023-01-02T13:53:12.604Z,9.68
2023-01-02T13:54:21.296Z,9.56
2023-01-02T13:55:33.246Z,9.63
2023-01-02T13:57:14.774Z,9.68
2023-01-02T13:58:20.454Z,9.70
2023-01-02T13:59:43.227Z,9.62
2023-01-02T14:00:55.240Z,9.52
2023-01-02T14:02:01.179Z,9.59
2023-01-02T14:03:23.200Z,9.60
2023-01-02T14:04:36.026Z,9.64
2023-01-02T14:05:57.404Z,9.62
2023-01-02T14:07:29.794Z,9.65
2023-01-02T14:08:35.789Z,9.63
2023-01-02T14:10:12.037Z,9.66
2023-01-02T14:11:27.643Z,9.60
2023-01-02T14:12:30.329Z,9.60
2023-01-02T14:13:42.328Z,9.53
2023-01-02T14:14:50.725Z,9.55
2023-01-02T14:16:19.225Z,9.54
2023-01-02T14:17:52.737Z,9.57
2023-01-02T14:19:13.773Z,9.59
2023-01-02T14:20:19.411Z,9.57
2023-01-02T14:21:21.932Z,9.46
2023-01-02T14:22:24.930Z,9.54
2023-01-02T14:23:39.177Z,9.55
2023-01-02T14:24:50.155Z,9.48
2023-01-02T14:25:52.655Z,9.47
2023-01-02T14:26:59.259Z,9.41
2023-01-02T14:28:04.778Z,9.46
2023-01-02T14:29:17.509Z,9.50
2023-01-02T14:30:46.561Z,9.54
2023-01-02T14:31:50.977Z,9.50
2023-01-02T14:32:53.735Z,9.46
2023-01-02T14:33:57.076Z,9.47
2023-01-02T14:35:02.618Z,9.47
2023-01-02T14:36:13.432Z,9.52
2023-01-02T14:37:37.199Z,9.53
2023-01-02T14:38:53.154Z,9.50
2023-01-02T14:39:55.915Z,9.45
2023-01-02T14:41:18.589Z,9.44
2023-01-02T14:42:39.350Z,9.47
2023-01-02T14:43:42.948Z,9.47
2023-01-02T14:44:52.063Z,9.50
2023-01-02T14:45:59.422Z,9.48
2023-01-02T14:47:03.227Z,9.49
2023-01-02T14:48:13.068Z,9.54
2023-01-02T14:49:26.125Z,9.43
2023-01-02T14:50:33.589Z,9.42
2023-01-02T14:51:40.550Z,9.40
2023-01-02T14:52:52.104Z,9.41